Time;durP1;ratioP1;P1;durP2;ratioP2;P2;SDS_P1;SDS_P2;PMS_P1;PMS_P2;Temp;Humidity;BMP_temperature;BMP_pressure;BME280_temperature;BME280_humidity;BME280_pressure;Samples;Min_cycle;Max_cycle;Signal;HPM_P1;HPM_P2
2021/12/14 00:01:57;;;;;;;31.43;22.40;;;8.80;98.30;;;;;;5093811;23;20522;-81
2021/12/14 00:04:06;;;;;;;29.63;20.97;;;8.80;98.30;;;;;;5093688;23;20435;-81
2021/12/14 00:06:10;;;;;;;30.77;22.13;;;8.80;98.30;;;;;;5094073;23;20412;-81
2021/12/14 00:08:15;;;;;;;29.93;21.67;;;8.80;98.30;;;;;;5093535;23;20437;-81
2021/12/14 00:10:42;;;;;;;31.40;23.20;;;8.80;98.30;;;;;;5093975;23;21077;-82
2021/12/14 00:12:58;;;;;;;31.83;21.33;;;8.80;98.30;;;;;;5093645;23;20462;-81
2021/12/14 00:15:04;;;;;;;31.03;22.87;;;8.80;98.30;;;;;;5094174;23;20427;-81
2021/12/14 00:17:09;;;;;;;33.03;22.13;;;8.80;98.30;;;;;;5095521;23;20439;-80
2021/12/14 00:19:13;;;;;;;31.83;21.60;;;8.80;98.30;;;;;;5101953;23;20425;-81
2021/12/14 00:21:20;;;;;;;30.50;21.27;;;8.80;98.30;;;;;;5094089;23;20441;-81
2021/12/14 00:25:52;;;;;;;30.10;20.90;;;8.80;98.30;;;;;;5093973;23;20416;-81
2021/12/14 00:27:59;;;;;;;29.07;20.90;;;8.70;98.30;;;;;;5093069;23;20414;-81
2021/12/14 00:30:04;;;;;;;30.83;23.33;;;8.80;98.30;;;;;;5093446;23;20768;-81
2021/12/14 00:32:14;;;;;;;32.60;21.80;;;8.80;98.30;;;;;;5092941;23;21026;-81
2021/12/14 00:34:23;;;;;;;31.50;22.63;;;8.70;98.30;;;;;;5093883;23;20458;-81
2021/12/14 00:36:26;;;;;;;31.80;22.23;;;8.60;98.30;;;;;;5093416;23;20994;-81
2021/12/14 00:38:29;;;;;;;34.10;23.43;;;8.70;98.30;;;;;;5092965;23;21004;-81
2021/12/14 00:40:36;;;;;;;33.00;23.70;;;8.70;98.30;;;;;;5093019;23;20431;-81
2021/12/14 00:42:39;;;;;;;30.00;21.80;;;8.60;98.30;;;;;;5093239;23;20539;-81
2021/12/14 00:44:44;;;;;;;29.43;21.57;;;8.70;98.30;;;;;;5093059;23;20941;-82
2021/12/14 00:46:47;;;;;;;29.77;20.77;;;8.60;98.30;;;;;;5093045;23;20458;-81
2021/12/14 00:48:51;;;;;;;31.33;22.47;;;8.70;98.30;;;;;;5092424;23;20434;-80
2021/12/14 00:50:58;;;;;;;27.40;22.20;;;8.70;98.30;;;;;;5093247;23;20438;-81
2021/12/14 00:53:03;;;;;;;28.77;20.93;;;8.70;98.30;;;;;;5092858;23;20480;-81
2021/12/14 00:55:09;;;;;;;29.93;20.97;;;8.70;98.30;;;;;;5092633;23;20429;-80
2021/12/14 00:57:12;;;;;;;31.20;20.97;;;8.60;98.30;;;;;;5092445;23;20449;-80
2021/12/14 00:59:16;;;;;;;29.90;20.73;;;8.60;98.30;;;;;;5091956;23;20488;-81
2021/12/14 01:01:23;;;;;;;29.40;21.83;;;8.70;98.30;;;;;;5093760;23;20440;-81
2021/12/14 01:03:30;;;;;;;30.13;22.40;;;8.70;98.30;;;;;;5092918;23;21033;-82
2021/12/14 01:05:35;;;;;;;34.47;22.93;;;8.70;98.30;;;;;;5101268;23;20834;-80
2021/12/14 01:07:39;;;;;;;27.73;21.37;;;8.60;98.30;;;;;;5092869;23;20411;-81
2021/12/14 01:09:46;;;;;;;30.00;21.63;;;8.70;98.30;;;;;;5092810;23;20438;-81
2021/12/14 01:11:50;;;;;;;33.80;22.10;;;8.70;98.30;;;;;;5092763;23;20471;-81
2021/12/14 01:14:02;;;;;;;25.83;18.30;;;8.70;98.30;;;;;;5092623;23;20429;-81
2021/12/14 01:16:16;;;;;;;27.50;18.83;;;8.60;98.30;;;;;;5092838;23;20507;-81
2021/12/14 01:18:34;;;;;;;29.33;21.17;;;8.70;98.30;;;;;;5092029;23;20934;-81
2021/12/14 01:20:39;;;;;;;30.57;20.60;;;8.70;98.30;;;;;;5092512;23;20431;-81
2021/12/14 01:22:45;;;;;;;30.40;22.00;;;8.70;98.30;;;;;;5100263;23;20454;-81
2021/12/14 01:25:03;;;;;;;25.10;18.90;;;8.70;98.30;;;;;;5092459;23;20431;-81
2021/12/14 01:27:09;;;;;;;29.30;21.27;;;8.70;98.30;;;;;;5091944;23;20417;-80
2021/12/14 01:29:14;;;;;;;34.13;22.80;;;8.60;98.30;;;;;;5099756;23;20434;-81
2021/12/14 01:31:26;;;;;;;32.43;25.80;;;8.70;98.30;;;;;;5091671;23;20667;-80
2021/12/14 01:33:32;;;;;;;30.90;20.30;;;8.70;98.30;;;;;;5091526;23;20460;-82
2021/12/14 01:35:38;;;;;;;33.23;24.90;;;8.70;98.30;;;;;;5100240;23;20952;-81
2021/12/14 01:37:47;;;;;;;34.00;20.87;;;8.70;98.30;;;;;;5100264;23;20500;-81
2021/12/14 01:40:03;;;;;;;28.67;19.50;;;8.70;98.30;;;;;;5092742;23;20447;-81
2021/12/14 01:42:10;;;;;;;30.70;21.40;;;8.70;98.30;;;;;;5092006;23;21019;-80
2021/12/14 01:44:14;;;;;;;27.00;19.40;;;8.70;98.30;;;;;;5092524;23;20437;-81
2021/12/14 01:46:20;;;;;;;26.03;19.83;;;8.60;98.30;;;;;;5091745;23;20430;-81
2021/12/14 01:48:24;;;;;;;27.40;20.33;;;8.60;98.30;;;;;;5091817;23;20458;-80
2021/12/14 01:50:32;;;;;;;29.57;20.60;;;8.70;98.30;;;;;;5091629;23;20433;-81
2021/12/14 01:52:36;;;;;;;31.83;20.00;;;8.70;98.30;;;;;;5091744;23;20463;-81
2021/12/14 01:54:44;;;;;;;26.37;17.80;;;8.70;98.30;;;;;;5092028;23;20429;-81
2021/12/14 01:56:47;;;;;;;23.70;18.80;;;8.70;98.30;;;;;;5093301;23;20441;-80
2021/12/14 01:58:52;;;;;;;28.83;20.47;;;8.70;98.30;;;;;;5092042;23;20916;-81
2021/12/14 02:00:58;;;;;;;31.27;19.10;;;8.70;98.30;;;;;;5092309;23;20429;-81
2021/12/14 02:03:02;;;;;;;32.30;22.63;;;8.70;98.30;;;;;;5092363;23;20454;-81
2021/12/14 02:05:09;;;;;;;31.77;22.50;;;8.60;98.30;;;;;;5092585;23;20433;-81
2021/12/14 02:07:15;;;;;;;26.23;19.00;;;8.60;98.30;;;;;;5101417;23;20498;-81
2021/12/14 02:09:19;;;;;;;28.57;18.33;;;8.60;98.30;;;;;;5100913;23;20424;-80
2021/12/14 02:11:22;;;;;;;23.70;18.73;;;8.60;98.30;;;;;;5092660;23;20431;-81
2021/12/14 02:13:30;;;;;;;33.33;20.57;;;8.60;98.30;;;;;;5092147;23;20457;-81
2021/12/14 02:15:37;;;;;;;27.97;19.17;;;8.60;98.30;;;;;;5091384;23;20459;-81
2021/12/14 02:17:41;;;;;;;29.07;20.13;;;8.60;98.30;;;;;;5091425;23;20522;-81
2021/12/14 02:19:45;;;;;;;27.77;19.23;;;8.60;98.30;;;;;;5091312;23;20441;-81
2021/12/14 02:21:52;;;;;;;27.20;19.00;;;8.60;98.30;;;;;;5091747;23;20441;-81
2021/12/14 02:23:56;;;;;;;28.63;18.50;;;8.60;98.30;;;;;;5091761;23;20767;-81
2021/12/14 02:26:05;;;;;;;31.63;18.80;;;8.60;98.30;;;;;;5091819;23;20437;-81
2021/12/14 02:28:14;;;;;;;26.07;18.77;;;8.60;98.30;;;;;;5091331;23;20429;-82
2021/12/14 02:30:20;;;;;;;26.43;18.57;;;8.60;98.30;;;;;;5100384;23;20744;-81
2021/12/14 02:32:27;;;;;;;25.90;17.37;;;8.60;98.30;;;;;;5091307;23;20457;-81
2021/12/14 02:34:30;;;;;;;29.20;19.10;;;8.60;98.30;;;;;;5091971;23;20434;-81
2021/12/14 02:36:37;;;;;;;24.23;16.90;;;8.60;98.30;;;;;;5099702;23;20451;-81
2021/12/14 02:38:43;;;;;;;48.23;19.83;;;8.70;98.30;;;;;;5091189;23;20422;-80
2021/12/14 02:40:55;;;;;;;25.50;17.53;;;8.60;98.30;;;;;;5091441;23;20462;-81
2021/12/14 02:42:59;;;;;;;29.03;18.60;;;8.60;98.30;;;;;;5091849;23;20896;-81
2021/12/14 02:45:02;;;;;;;27.03;18.87;;;8.60;98.30;;;;;;5100034;23;20425;-81
2021/12/14 02:47:10;;;;;;;26.47;18.50;;;8.60;98.30;;;;;;5099809;23;20428;-80
2021/12/14 02:49:16;;;;;;;28.63;18.40;;;8.60;98.30;;;;;;5099441;23;20456;-80
2021/12/14 02:51:22;;;;;;;34.47;20.40;;;8.60;98.30;;;;;;5099619;23;20444;-80
2021/12/14 02:53:25;;;;;;;29.80;19.80;;;8.60;98.30;;;;;;5092466;23;21027;-80
2021/12/14 02:55:29;;;;;;;30.93;18.10;;;8.60;98.30;;;;;;5091327;23;20435;-81
2021/12/14 02:57:34;;;;;;;25.60;18.10;;;8.60;98.30;;;;;;5091195;23;20457;-80
2021/12/14 02:59:41;;;;;;;30.20;21.93;;;8.60;98.30;;;;;;5091427;23;20823;-80
2021/12/14 03:01:47;;;;;;;27.77;19.10;;;8.60;98.30;;;;;;5091420;23;20413;-81
2021/12/14 03:03:50;;;;;;;29.57;18.17;;;8.60;98.30;;;;;;5101809;23;20426;-81
2021/12/14 03:05:53;;;;;;;29.37;19.13;;;8.60;98.30;;;;;;5091966;23;20740;-81
2021/12/14 03:08:00;;;;;;;25.27;18.60;;;8.60;98.30;;;;;;5091225;23;20448;-81
2021/12/14 03:10:39;;;;;;;36.70;20.97;;;8.60;98.30;;;;;;5091625;23;20449;-81
2021/12/14 03:12:45;;;;;;;26.27;17.27;;;8.60;98.30;;;;;;5099846;23;20489;-80
2021/12/14 03:14:52;;;;;;;33.63;18.10;;;8.70;98.30;;;;;;5096791;23;20460;-81
2021/12/14 03:16:55;;;;;;;26.97;17.77;;;8.70;98.30;;;;;;5097456;23;20932;-81
2021/12/14 03:19:01;;;;;;;29.77;18.10;;;8.70;98.30;;;;;;5096443;23;20516;-81
2021/12/14 03:21:07;;;;;;;26.10;18.00;;;8.60;98.30;;;;;;5096858;23;20415;-82
2021/12/14 03:23:13;;;;;;;24.53;16.43;;;8.60;98.30;;;;;;5099350;23;20465;-81
2021/12/14 03:25:19;;;;;;;27.10;19.50;;;8.60;98.30;;;;;;5098368;23;20442;-81
2021/12/14 03:27:23;;;;;;;28.30;19.60;;;8.60;98.30;;;;;;5096034;23;20418;-81
2021/12/14 03:29:30;;;;;;;24.97;17.53;;;8.60;98.30;;;;;;5105670;23;20473;-82
2021/12/14 03:31:36;;;;;;;27.73;20.23;;;8.60;98.30;;;;;;5097681;23;20521;-81
2021/12/14 03:33:43;;;;;;;24.90;16.80;;;8.60;98.30;;;;;;5098828;23;20428;-80
2021/12/14 03:35:49;;;;;;;27.93;18.60;;;8.60;98.30;;;;;;5096419;23;20438;-81
2021/12/14 03:38:05;;;;;;;34.07;19.40;;;8.60;98.30;;;;;;5097317;23;20444;-81
2021/12/14 03:40:09;;;;;;;30.30;19.90;;;8.60;98.30;;;;;;5098309;23;20443;-81
2021/12/14 03:42:16;;;;;;;27.20;19.03;;;8.60;98.30;;;;;;5096860;23;21029;-81
2021/12/14 03:44:24;;;;;;;28.77;19.27;;;8.60;98.30;;;;;;5098147;23;20492;-80
2021/12/14 03:46:28;;;;;;;25.73;18.77;;;8.60;98.30;;;;;;5105669;23;20407;-81
2021/12/14 03:48:33;;;;;;;67.43;38.00;;;8.60;98.30;;;;;;5105362;23;20489;-81
2021/12/14 03:50:40;;;;;;;26.00;17.70;;;8.60;98.30;;;;;;5096804;23;20742;-82
2021/12/14 03:52:44;;;;;;;27.53;17.97;;;8.60;98.30;;;;;;5105300;23;20532;-82
2021/12/14 03:54:47;;;;;;;24.50;16.93;;;8.60;98.30;;;;;;5096889;23;20514;-81
2021/12/14 03:56:51;;;;;;;26.20;18.63;;;8.60;98.30;;;;;;5094789;23;20965;-81
2021/12/14 03:58:55;;;;;;;23.93;15.93;;;8.60;98.30;;;;;;5102510;23;20444;-82
2021/12/14 04:01:02;;;;;;;25.37;17.70;;;8.60;98.30;;;;;;5101863;23;20419;-81
2021/12/14 04:03:11;;;;;;;27.30;18.50;;;8.60;98.30;;;;;;5095993;23;20451;-81
2021/12/14 04:05:14;;;;;;;26.53;19.30;;;8.60;98.30;;;;;;5096388;23;20432;-81
2021/12/14 04:07:18;;;;;;;25.60;21.60;;;8.60;98.30;;;;;;5104709;23;20433;-82
2021/12/14 04:09:24;;;;;;;29.73;20.20;;;8.60;98.30;;;;;;5097512;23;20492;-81
2021/12/14 04:11:28;;;;;;;23.50;16.90;;;8.60;98.30;;;;;;5097686;23;20473;-81
2021/12/14 04:13:34;;;;;;;25.60;15.83;;;8.60;98.30;;;;;;5105387;23;20445;-81
2021/12/14 04:15:37;;;;;;;25.83;17.97;;;8.60;98.30;;;;;;5105383;23;20967;-81
2021/12/14 04:17:42;;;;;;;25.50;17.00;;;8.60;98.30;;;;;;5096524;23;20436;-81
2021/12/14 04:19:45;;;;;;;22.10;16.57;;;8.60;98.30;;;;;;5095580;23;20434;-80
2021/12/14 04:21:49;;;;;;;24.67;18.40;;;8.60;98.30;;;;;;5095974;23;20436;-81
2021/12/14 04:23:53;;;;;;;26.53;19.00;;;8.60;98.30;;;;;;5105059;23;20418;-81
2021/12/14 04:26:00;;;;;;;25.80;16.43;;;8.60;98.30;;;;;;5095654;23;20468;-80
2021/12/14 04:28:07;;;;;;;28.77;19.30;;;8.60;98.30;;;;;;5097067;23;20417;-82
2021/12/14 04:30:15;;;;;;;23.83;17.30;;;8.60;98.30;;;;;;5104531;23;20433;-81
2021/12/14 04:32:20;;;;;;;25.47;16.90;;;8.60;98.30;;;;;;5096724;23;20459;-81
2021/12/14 04:34:24;;;;;;;22.63;16.27;;;8.60;98.30;;;;;;5097209;23;20413;-81
2021/12/14 04:36:29;;;;;;;21.77;15.73;;;8.60;98.30;;;;;;5105405;23;20436;-81
2021/12/14 04:38:36;;;;;;;26.30;19.07;;;8.60;98.30;;;;;;5105807;23;20946;-82
2021/12/14 04:52:37;;;;;;;30.00;18.07;;;8.50;98.30;;;;;;5104295;23;20459;-80
2021/12/14 04:54:43;;;;;;;21.83;16.00;;;8.50;98.30;;;;;;5096092;23;20411;-81
2021/12/14 04:56:46;;;;;;;25.30;16.87;;;8.50;98.30;;;;;;5093746;23;20441;-81
2021/12/14 04:58:54;;;;;;;22.03;16.40;;;8.50;98.30;;;;;;5102496;23;20445;-81
2021/12/14 05:00:58;;;;;;;24.50;18.00;;;8.50;98.30;;;;;;5095097;23;20491;-81
2021/12/14 05:03:04;;;;;;;27.93;17.87;;;8.50;98.30;;;;;;5095656;23;20853;-81
2021/12/14 05:05:11;;;;;;;25.67;17.63;;;8.50;98.30;;;;;;5096323;23;20486;-81
2021/12/14 05:07:33;;;;;;;22.60;15.10;;;8.50;98.30;;;;;;5096358;23;20413;-81
2021/12/14 05:09:37;;;;;;;25.73;19.23;;;8.50;98.30;;;;;;5095713;23;20423;-81
2021/12/14 05:11:40;;;;;;;23.03;16.60;;;8.50;98.30;;;;;;5097254;23;20433;-81
2021/12/14 05:13:46;;;;;;;22.50;16.80;;;8.50;98.30;;;;;;5096837;23;20916;-81
2021/12/14 05:15:49;;;;;;;25.93;18.30;;;8.50;98.30;;;;;;5096587;23;20433;-80
2021/12/14 05:17:52;;;;;;;22.20;15.43;;;8.50;98.30;;;;;;5097238;23;20443;-81
2021/12/14 05:19:55;;;;;;;25.97;16.70;;;8.50;98.30;;;;;;5097083;23;20452;-80
2021/12/14 05:22:04;;;;;;;23.03;14.90;;;8.50;98.30;;;;;;5095709;23;21017;-81
2021/12/14 05:24:10;;;;;;;21.23;14.83;;;8.50;98.30;;;;;;5096342;23;20474;-81
2021/12/14 05:26:16;;;;;;;24.67;17.60;;;8.50;98.30;;;;;;5094690;23;20432;-80
2021/12/14 05:28:20;;;;;;;21.60;14.00;;;8.50;98.30;;;;;;5096041;23;20439;-80
2021/12/14 05:30:27;;;;;;;24.23;14.83;;;8.50;98.30;;;;;;5096709;23;20437;-81
2021/12/14 05:32:30;;;;;;;22.47;14.50;;;8.50;98.30;;;;;;5094817;23;20456;-81
2021/12/14 05:34:34;;;;;;;20.73;15.50;;;8.50;98.30;;;;;;5095938;23;20435;-80
2021/12/14 05:36:37;;;;;;;20.23;15.43;;;8.50;98.30;;;;;;5097138;23;20431;-81
2021/12/14 05:38:51;;;;;;;24.17;17.90;;;8.50;98.30;;;;;;5094196;23;20438;-81
2021/12/14 05:41:09;;;;;;;21.10;14.70;;;8.50;98.30;;;;;;5095520;23;20418;-81
2021/12/14 05:43:16;;;;;;;20.70;15.77;;;8.50;98.30;;;;;;5093750;23;21040;-80
2021/12/14 05:45:22;;;;;;;19.00;14.73;;;8.50;98.30;;;;;;5093387;23;20424;-81
2021/12/14 05:47:25;;;;;;;23.50;17.53;;;8.50;98.30;;;;;;5100173;23;20905;-81
2021/12/14 05:49:30;;;;;;;21.30;13.60;;;8.50;98.30;;;;;;5092371;23;20512;-81
2021/12/14 05:51:33;;;;;;;22.07;15.27;;;8.50;98.30;;;;;;5101669;23;20424;-81
2021/12/14 05:53:39;;;;;;;22.30;14.77;;;8.50;98.30;;;;;;5093559;23;20436;-81
2021/12/14 05:55:44;;;;;;;20.23;16.10;;;8.50;98.30;;;;;;5100671;23;20425;-81
2021/12/14 05:57:47;;;;;;;18.83;14.77;;;8.50;98.30;;;;;;5092060;23;20431;-80
2021/12/14 05:59:50;;;;;;;23.30;17.43;;;8.50;98.30;;;;;;5100090;23;20577;-80
2021/12/14 06:01:54;;;;;;;20.87;14.53;;;8.50;98.30;;;;;;5092082;23;20455;-81
2021/12/14 06:04:00;;;;;;;21.17;14.77;;;8.50;98.30;;;;;;5094750;23;20436;-81
2021/12/14 06:06:04;;;;;;;23.47;15.03;;;8.50;98.30;;;;;;5095943;23;20424;-81
2021/12/14 06:08:07;;;;;;;21.03;15.13;;;8.50;98.30;;;;;;5104366;23;20433;-79
2021/12/14 06:10:13;;;;;;;22.17;16.57;;;8.50;98.30;;;;;;5100823;23;20438;-81
2021/12/14 06:12:21;;;;;;;21.50;13.90;;;8.40;98.30;;;;;;5097708;23;20471;-81
2021/12/14 06:14:28;;;;;;;19.30;14.97;;;8.40;98.30;;;;;;5096703;23;20549;-81
2021/12/14 06:16:33;;;;;;;22.50;15.63;;;8.30;98.30;;;;;;5110240;23;20434;-79
2021/12/14 06:18:37;;;;;;;24.13;19.27;;;8.30;98.30;;;;;;5102777;23;21051;-81
2021/12/14 06:20:44;;;;;;;22.50;15.80;;;8.20;98.30;;;;;;5101198;23;20449;-82
2021/12/14 06:22:48;;;;;;;27.00;15.80;;;8.20;98.30;;;;;;5102067;23;20455;-82
2021/12/14 06:24:56;;;;;;;25.63;16.70;;;8.20;98.30;;;;;;5111087;23;20420;-82
2021/12/14 06:27:01;;;;;;;25.57;17.50;;;8.10;98.30;;;;;;5102638;23;20421;-81
2021/12/14 06:29:08;;;;;;;26.87;16.00;;;8.10;98.30;;;;;;5102054;23;20439;-81
2021/12/14 06:31:10;;;;;;;28.50;18.90;;;8.10;98.30;;;;;;5101704;23;20415;-82
2021/12/14 06:33:13;;;;;;;30.23;21.63;;;8.10;98.30;;;;;;5107223;23;20451;-80
2021/12/14 06:35:20;;;;;;;31.00;20.10;;;8.10;98.30;;;;;;5096569;23;20467;-80
2021/12/14 06:38:07;;;;;;;31.03;18.00;;;8.10;98.30;;;;;;5097213;23;20733;-80
2021/12/14 06:40:19;;;;;;;31.23;21.33;;;8.10;98.30;;;;;;5101957;23;20451;-81
2021/12/14 06:42:22;;;;;;;26.27;19.50;;;8.10;98.30;;;;;;5094565;23;21038;-81
2021/12/14 06:44:26;;;;;;;33.50;19.57;;;8.10;98.30;;;;;;5098069;23;20801;-81
2021/12/14 06:46:32;;;;;;;29.10;21.57;;;8.10;98.30;;;;;;5097758;23;20493;-80
2021/12/14 06:48:41;;;;;;;27.33;18.97;;;8.10;98.30;;;;;;5097993;23;20430;-81
2021/12/14 06:50:46;;;;;;;28.97;18.00;;;8.00;98.30;;;;;;5104101;23;20424;-81
2021/12/14 06:52:57;;;;;;;30.60;20.47;;;8.00;98.30;;;;;;5096481;23;20463;-81
2021/12/14 06:55:05;;;;;;;30.07;19.17;;;8.00;98.30;;;;;;5093136;23;20431;-81
2021/12/14 06:57:08;;;;;;;29.70;21.37;;;7.90;98.30;;;;;;5091805;23;20490;-81
2021/12/14 06:59:13;;;;;;;34.43;19.70;;;7.90;98.30;;;;;;5090845;23;20461;-80
2021/12/14 07:01:20;;;;;;;35.60;21.80;;;7.90;98.30;;;;;;5091002;23;20427;-81
2021/12/14 07:03:24;;;;;;;41.90;27.63;;;7.80;98.30;;;;;;5099940;23;20447;-81
2021/12/14 07:05:29;;;;;;;38.70;26.60;;;7.90;98.30;;;;;;5100351;23;20474;-81
2021/12/14 07:07:33;;;;;;;32.53;18.57;;;7.80;98.30;;;;;;5100109;23;20511;-81
2021/12/14 07:09:39;;;;;;;39.07;26.17;;;7.90;98.30;;;;;;5099790;23;20429;-81
2021/12/14 07:11:47;;;;;;;33.20;22.60;;;7.90;98.30;;;;;;5092398;23;20428;-81
2021/12/14 07:13:52;;;;;;;36.90;26.33;;;7.90;98.30;;;;;;5093630;23;20967;-80
2021/12/14 07:15:57;;;;;;;36.37;24.20;;;7.90;98.30;;;;;;5095091;23;20426;-82
2021/12/14 07:18:04;;;;;;;34.60;22.20;;;7.90;98.30;;;;;;5097519;23;20432;-82
2021/12/14 07:20:17;;;;;;;36.00;25.07;;;7.90;98.30;;;;;;5098720;23;20436;-81
2021/12/14 07:22:41;;;;;;;38.13;23.97;;;7.90;98.30;;;;;;5098347;23;20452;-81
2021/12/14 07:24:43;;;;;;;34.73;24.13;;;8.00;98.30;;;;;;5100783;23;20416;-81
2021/12/14 07:26:46;;;;;;;34.33;20.80;;;8.00;98.30;;;;;;5100261;23;20434;-81
2021/12/14 07:28:51;;;;;;;38.63;24.90;;;8.00;98.30;;;;;;5099231;23;20530;-81
2021/12/14 07:30:57;;;;;;;38.63;26.70;;;8.00;98.30;;;;;;5101298;23;20827;-80
2021/12/14 07:33:05;;;;;;;37.60;24.57;;;8.00;98.30;;;;;;5095090;23;20449;-81
2021/12/14 07:35:32;;;;;;;37.03;24.53;;;8.00;98.30;;;;;;5096124;23;20447;-80
2021/12/14 07:37:36;;;;;;;35.60;23.30;;;8.10;98.30;;;;;;5095364;23;20435;-81
2021/12/14 07:39:38;;;;;;;38.40;23.83;;;8.10;98.30;;;;;;5105238;23;20422;-80
2021/12/14 07:41:44;;;;;;;36.00;21.60;;;8.10;98.30;;;;;;5095949;23;20431;-81
2021/12/14 07:43:51;;;;;;;34.67;24.17;;;8.10;98.30;;;;;;5096307;23;20417;-81
2021/12/14 07:45:56;;;;;;;36.03;22.43;;;8.10;98.30;;;;;;5095412;23;20498;-81
2021/12/14 07:47:59;;;;;;;38.40;22.20;;;8.00;98.30;;;;;;5095720;23;20439;-81
2021/12/14 07:50:04;;;;;;;41.50;26.27;;;8.00;98.30;;;;;;5095108;23;20484;-81
2021/12/14 07:52:14;;;;;;;36.40;20.37;;;8.00;98.30;;;;;;5104216;23;20467;-81
2021/12/14 07:54:21;;;;;;;36.93;21.70;;;8.10;98.30;;;;;;5103284;23;20495;-82
2021/12/14 07:56:33;;;;;;;40.43;21.53;;;8.10;98.30;;;;;;5095259;23;20757;-81
2021/12/14 07:58:38;;;;;;;37.57;23.00;;;8.00;98.30;;;;;;5095646;23;20751;-81
2021/12/14 08:00:42;;;;;;;42.50;22.10;;;8.00;98.30;;;;;;5097022;23;20431;-80
2021/12/14 08:02:48;;;;;;;38.30;22.23;;;8.00;98.30;;;;;;5095885;23;20448;-81
2021/12/14 08:04:53;;;;;;;38.87;21.33;;;8.00;98.30;;;;;;5096933;23;20499;-81
2021/12/14 08:06:58;;;;;;;38.43;19.73;;;8.00;98.30;;;;;;5097317;23;20428;-80
2021/12/14 08:09:00;;;;;;;43.17;24.50;;;8.00;98.30;;;;;;5098789;23;20999;-81
2021/12/14 08:11:28;;;;;;;41.90;25.37;;;8.00;98.30;;;;;;5099277;23;20466;-80
2021/12/14 08:13:31;;;;;;;41.47;24.10;;;8.00;98.30;;;;;;5098288;23;20818;-81
2021/12/14 08:15:40;;;;;;;43.70;25.87;;;8.00;98.30;;;;;;5109649;23;20423;-81
2021/12/14 08:17:44;;;;;;;44.00;22.67;;;8.00;98.30;;;;;;5100586;23;20434;-81
2021/12/14 08:19:53;;;;;;;44.03;24.00;;;8.00;98.30;;;;;;5109080;23;20419;-81
2021/12/14 08:21:56;;;;;;;46.87;22.97;;;8.00;98.30;;;;;;5101918;23;20459;-81
2021/12/14 08:24:03;;;;;;;43.93;21.83;;;8.00;98.30;;;;;;5102051;23;20446;-81
2021/12/14 08:26:12;;;;;;;40.00;21.73;;;8.00;98.30;;;;;;5097804;23;20416;-80
2021/12/14 08:28:18;;;;;;;49.30;28.80;;;8.00;98.30;;;;;;5092172;23;20436;-79
2021/12/14 08:30:52;;;;;;;42.27;24.90;;;8.00;98.30;;;;;;5092982;23;20736;-80
2021/12/14 08:32:56;;;;;;;49.00;26.23;;;7.90;98.30;;;;;;5097895;23;20582;-81
2021/12/14 08:35:02;;;;;;;50.40;27.77;;;7.90;98.30;;;;;;5102651;23;20432;-81
2021/12/14 08:37:09;;;;;;;47.90;28.27;;;7.90;98.30;;;;;;5103483;23;20890;-81
2021/12/14 08:39:17;;;;;;;51.67;25.40;;;7.90;98.30;;;;;;5093098;23;20502;-81
2021/12/14 08:41:24;;;;;;;52.37;29.90;;;7.90;98.30;;;;;;5094617;23;20828;-80
2021/12/14 08:43:33;;;;;;;57.97;32.47;;;8.00;98.30;;;;;;5095159;23;20755;-81
2021/12/14 08:45:40;;;;;;;46.20;25.83;;;8.00;98.30;;;;;;5094707;23;20434;-81
2021/12/14 08:47:43;;;;;;;53.97;30.93;;;8.00;98.30;;;;;;5096054;23;20483;-81
2021/12/14 08:49:49;;;;;;;46.73;23.90;;;7.90;98.30;;;;;;5096232;23;20436;-81
2021/12/14 08:51:52;;;;;;;50.03;26.43;;;8.00;98.30;;;;;;5096891;23;20490;-81
2021/12/14 08:53:59;;;;;;;47.23;26.60;;;8.00;98.30;;;;;;5096311;23;20438;-81
2021/12/14 08:56:07;;;;;;;44.30;25.30;;;8.00;98.30;;;;;;5097491;23;20959;-81
2021/12/14 08:58:11;;;;;;;50.67;29.27;;;8.00;98.30;;;;;;5095686;23;20438;-80
2021/12/14 09:00:18;;;;;;;41.80;22.70;;;8.00;98.30;;;;;;5094800;23;20438;-81
2021/12/14 09:02:23;;;;;;;52.73;30.47;;;8.00;98.30;;;;;;5095830;23;21089;-81
2021/12/14 09:04:31;;;;;;;51.17;30.37;;;8.00;98.30;;;;;;5094770;23;20459;-80
2021/12/14 09:06:37;;;;;;;54.53;26.00;;;8.00;98.30;;;;;;5096885;23;20471;-80
2021/12/14 09:08:44;;;;;;;56.10;30.17;;;8.00;98.30;;;;;;5097465;23;20886;-81
2021/12/14 09:10:49;;;;;;;49.87;25.87;;;8.00;98.30;;;;;;5096607;23;20752;-80
2021/12/14 09:13:04;;;;;;;52.83;26.20;;;8.00;98.30;;;;;;5095250;23;20454;-81
2021/12/14 09:15:26;;;;;;;52.00;24.77;;;8.00;98.30;;;;;;5095518;23;20434;-82
2021/12/14 09:17:29;;;;;;;53.27;30.10;;;8.00;98.30;;;;;;5103020;23;20407;-81
2021/12/14 09:19:36;;;;;;;45.93;26.73;;;8.00;98.30;;;;;;5101189;23;20506;-81
2021/12/14 09:21:48;;;;;;;56.50;32.23;;;8.00;98.30;;;;;;5093582;23;20454;-80
2021/12/14 09:24:00;;;;;;;50.50;31.17;;;8.10;98.30;;;;;;5101506;23;20406;-80
2021/12/14 09:26:04;;;;;;;58.23;29.90;;;8.10;98.30;;;;;;5097799;23;20427;-81
2021/12/14 09:28:09;;;;;;;55.53;29.13;;;8.10;98.30;;;;;;5101938;23;20914;-81
2021/12/14 09:30:16;;;;;;;50.40;28.57;;;8.10;98.30;;;;;;5099816;23;20415;-81
2021/12/14 09:32:24;;;;;;;52.70;29.63;;;8.10;98.30;;;;;;5100118;23;20519;-81
2021/12/14 09:34:30;;;;;;;51.60;27.47;;;8.10;98.30;;;;;;5100051;23;20447;-80
2021/12/14 09:36:33;;;;;;;60.50;30.67;;;8.10;98.30;;;;;;5099861;23;20436;-81
2021/12/14 09:38:40;;;;;;;62.53;32.60;;;8.10;98.30;;;;;;5110104;23;20504;-81
2021/12/14 09:40:47;;;;;;;59.90;26.37;;;8.10;98.30;;;;;;5101692;23;20933;-82
2021/12/14 09:42:52;;;;;;;52.50;26.73;;;8.10;98.30;;;;;;5101986;23;20462;-81
2021/12/14 09:44:59;;;;;;;54.37;27.10;;;8.20;98.30;;;;;;5096848;23;20439;-81
2021/12/14 09:47:08;;;;;;;42.00;20.50;;;8.20;98.30;;;;;;5098011;23;20758;-81
2021/12/14 09:49:14;;;;;;;51.60;26.40;;;8.20;98.30;;;;;;5097308;23;20454;-82
2021/12/14 09:51:22;;;;;;;57.67;27.03;;;8.20;98.30;;;;;;5095909;23;20428;-82
2021/12/14 09:53:28;;;;;;;58.37;25.70;;;8.20;98.30;;;;;;5096679;23;20461;-81
2021/12/14 09:55:35;;;;;;;52.93;25.43;;;8.20;98.30;;;;;;5098532;23;20438;-81
2021/12/14 09:57:42;;;;;;;59.30;28.50;;;8.20;98.30;;;;;;5094602;23;20415;-81
2021/12/14 09:59:45;;;;;;;60.87;32.30;;;8.20;98.30;;;;;;5099448;23;20416;-80
2021/12/14 10:01:54;;;;;;;68.07;36.23;;;8.20;98.30;;;;;;5093081;23;20508;-80
2021/12/14 10:04:01;;;;;;;54.83;28.40;;;8.20;98.30;;;;;;5103268;23;20436;-80
2021/12/14 10:06:07;;;;;;;62.10;27.20;;;8.30;98.30;;;;;;5096357;23;20796;-81
2021/12/14 10:08:17;;;;;;;52.50;25.73;;;8.30;98.30;;;;;;5095066;23;20420;-81
2021/12/14 10:10:21;;;;;;;62.73;26.27;;;8.20;98.30;;;;;;5106678;23;20410;-81
2021/12/14 10:12:49;;;;;;;51.40;25.77;;;8.30;98.30;;;;;;5094364;23;20494;-84
2021/12/14 10:14:54;;;;;;;55.03;28.63;;;8.30;98.30;;;;;;5100156;23;20452;-84
2021/12/14 10:16:58;;;;;;;52.23;26.50;;;8.40;98.30;;;;;;5101060;23;20975;-84
2021/12/14 10:21:29;;;;;;;61.60;28.30;;;8.40;98.30;;;;;;5099380;23;20885;-84
2021/12/14 10:23:34;;;;;;;48.10;24.33;;;8.30;98.30;;;;;;5099146;23;20448;-83
2021/12/14 10:25:38;;;;;;;59.83;30.77;;;8.40;98.30;;;;;;5099702;23;20424;-84
2021/12/14 10:27:42;;;;;;;58.13;26.30;;;8.40;98.30;;;;;;5099858;23;20436;-84
2021/12/14 10:29:46;;;;;;;50.60;27.20;;;8.40;98.30;;;;;;5099327;23;20550;-84
2021/12/14 10:31:53;;;;;;;58.27;26.50;;;8.40;98.30;;;;;;5099540;23;20910;-84
2021/12/14 10:34:01;;;;;;;51.13;24.00;;;8.40;98.30;;;;;;5100367;23;20430;-84
2021/12/14 10:36:16;;;;;;;57.63;26.50;;;8.40;98.30;;;;;;5101097;23;20426;-84
2021/12/14 10:38:27;;;;;;;48.60;24.03;;;8.40;98.30;;;;;;5098609;23;20432;-84
2021/12/14 10:43:12;;;;;;;46.43;23.30;;;8.40;98.30;;;;;;5098577;23;20454;-84
2021/12/14 10:45:16;;;;;;;51.10;23.70;;;8.40;98.30;;;;;;5099898;23;20451;-84
2021/12/14 10:47:24;;;;;;;57.13;27.57;;;8.40;98.30;;;;;;5100361;23;20779;-84
2021/12/14 10:49:29;;;;;;;49.13;26.33;;;8.40;98.30;;;;;;5103886;23;20409;-84
2021/12/14 10:51:35;;;;;;;45.20;22.50;;;8.40;98.30;;;;;;5099412;23;20507;-84
2021/12/14 10:53:42;;;;;;;53.13;30.17;;;8.40;98.30;;;;;;5102323;23;20907;-84
2021/12/14 10:56:11;;;;;;;52.50;25.50;;;8.40;98.30;;;;;;5093691;23;20432;-84
2021/12/14 10:58:17;;;;;;;51.07;24.03;;;8.40;98.30;;;;;;5091414;23;20435;-83
2021/12/14 11:00:31;;;;;;;51.33;26.80;;;8.40;98.30;;;;;;5092247;23;20424;-84
2021/12/14 11:02:40;;;;;;;47.77;24.10;;;8.40;98.30;;;;;;5099148;23;20473;-84
2021/12/14 11:04:53;;;;;;;53.50;26.97;;;8.40;98.30;;;;;;5099848;23;20399;-84
2021/12/14 11:06:58;;;;;;;53.00;25.80;;;8.40;98.30;;;;;;5098814;23;20462;-84
2021/12/14 11:11:35;;;;;;;54.23;27.33;;;8.50;98.30;;;;;;5091031;23;20524;-84
2021/12/14 11:13:45;;;;;;;52.73;25.13;;;8.50;98.30;;;;;;5091232;23;20513;-84